<?xml version="1.0" encoding="UTF-8" standalone="no" ?>
<gpx xmlns="http://www.topografix.com/GPX/1/1" xmlns:xsi="http://www.w3.org/2001/XMLSchema-instance" xsi:schemaLocation="http://www.topografix.com/GPX/1/1 http://www.topografix.com/GPX/1/1/gpx.xsd" version="1.1" creator="VisuGPX - https://www.visugpx.com">
  <metadata>
    <name>417 lac de charmes 7km</name>
    <desc><![CDATA[philman52]]></desc>
  </metadata>
  <trk>
    <name><![CDATA[Activité actuelle: 12 JAN 2022 13:43]]></name>
    <extensions>
      <line xmlns="http://www.topografix.com/GPX/gpx_style/0/2">
        <color>0000FF</color>
        <width>4</width>
      </line>
    </extensions>
    <trkseg>
      <trkpt lat="47.91336" lon="5.37679">
        <ele>345.3</ele>
      </trkpt>
      <trkpt lat="47.9133" lon="5.37502">
        <ele>344.6</ele>
      </trkpt>
      <trkpt lat="47.9133" lon="5.37423">
        <ele>343.36</ele>
        <time>2022-01-12T12:44:01Z</time>
      </trkpt>
      <trkpt lat="47.91332" lon="5.37413">
        <ele>343.38</ele>
        <time>2022-01-12T12:44:07Z</time>
      </trkpt>
      <trkpt lat="47.91332" lon="5.37411">
        <ele>343.39</ele>
        <time>2022-01-12T12:44:08Z</time>
      </trkpt>
      <trkpt lat="47.91335" lon="5.37392">
        <ele>343.5</ele>
        <time>2022-01-12T12:44:21Z</time>
      </trkpt>
      <trkpt lat="47.91336" lon="5.3737">
        <ele>343.9</ele>
        <time>2022-01-12T12:44:34Z</time>
      </trkpt>
      <trkpt lat="47.9134" lon="5.37335">
        <ele>344.27</ele>
        <time>2022-01-12T12:44:53Z</time>
      </trkpt>
      <trkpt lat="47.91343" lon="5.37305">
        <ele>344.24</ele>
        <time>2022-01-12T12:45:10Z</time>
      </trkpt>
      <trkpt lat="47.91345" lon="5.37292">
        <ele>344.15</ele>
        <time>2022-01-12T12:45:23Z</time>
      </trkpt>
      <trkpt lat="47.91346" lon="5.37272">
        <ele>344.13</ele>
        <time>2022-01-12T12:45:36Z</time>
      </trkpt>
      <trkpt lat="47.91349" lon="5.37242">
        <ele>344.25</ele>
        <time>2022-01-12T12:45:52Z</time>
      </trkpt>
      <trkpt lat="47.91353" lon="5.37206">
        <ele>344.32</ele>
        <time>2022-01-12T12:46:12Z</time>
      </trkpt>
      <trkpt lat="47.91357" lon="5.37176">
        <ele>344.25</ele>
        <time>2022-01-12T12:46:29Z</time>
      </trkpt>
      <trkpt lat="47.91359" lon="5.37145">
        <ele>344.14</ele>
        <time>2022-01-12T12:46:46Z</time>
      </trkpt>
      <trkpt lat="47.91362" lon="5.37119">
        <ele>344.28</ele>
        <time>2022-01-12T12:47:02Z</time>
      </trkpt>
      <trkpt lat="47.91366" lon="5.3708">
        <ele>343.91</ele>
        <time>2022-01-12T12:47:24Z</time>
      </trkpt>
      <trkpt lat="47.91368" lon="5.37043">
        <ele>343.46</ele>
        <time>2022-01-12T12:47:43Z</time>
      </trkpt>
      <trkpt lat="47.91369" lon="5.37016">
        <ele>343.41</ele>
        <time>2022-01-12T12:47:58Z</time>
      </trkpt>
      <trkpt lat="47.91366" lon="5.36989">
        <ele>343.26</ele>
        <time>2022-01-12T12:48:13Z</time>
      </trkpt>
      <trkpt lat="47.91363" lon="5.36951">
        <ele>343.23</ele>
        <time>2022-01-12T12:48:34Z</time>
      </trkpt>
      <trkpt lat="47.91356" lon="5.36924">
        <ele>343.08</ele>
        <time>2022-01-12T12:48:51Z</time>
      </trkpt>
      <trkpt lat="47.91354" lon="5.36902">
        <ele>342.63</ele>
        <time>2022-01-12T12:49:05Z</time>
      </trkpt>
      <trkpt lat="47.91355" lon="5.36895">
        <ele>342.53</ele>
        <time>2022-01-12T12:49:10Z</time>
      </trkpt>
      <trkpt lat="47.91357" lon="5.3687">
        <ele>342.87</ele>
        <time>2022-01-12T12:49:24Z</time>
      </trkpt>
      <trkpt lat="47.91354" lon="5.36841">
        <ele>342.82</ele>
        <time>2022-01-12T12:49:39Z</time>
      </trkpt>
      <trkpt lat="47.91351" lon="5.36809">
        <ele>342.71</ele>
        <time>2022-01-12T12:49:56Z</time>
      </trkpt>
      <trkpt lat="47.91353" lon="5.36779">
        <ele>342.71</ele>
        <time>2022-01-12T12:50:13Z</time>
      </trkpt>
      <trkpt lat="47.91361" lon="5.36754">
        <ele>342.71</ele>
        <time>2022-01-12T12:50:29Z</time>
      </trkpt>
      <trkpt lat="47.91377" lon="5.36731">
        <ele>342.8</ele>
        <time>2022-01-12T12:50:47Z</time>
      </trkpt>
      <trkpt lat="47.91405" lon="5.3672">
        <ele>342.79</ele>
        <time>2022-01-12T12:51:11Z</time>
      </trkpt>
      <trkpt lat="47.91428" lon="5.36727">
        <ele>343.13</ele>
        <time>2022-01-12T12:51:30Z</time>
      </trkpt>
      <trkpt lat="47.91442" lon="5.36737">
        <ele>342.41</ele>
        <time>2022-01-12T12:51:44Z</time>
      </trkpt>
      <trkpt lat="47.91456" lon="5.36743">
        <ele>341.83</ele>
        <time>2022-01-12T12:51:57Z</time>
      </trkpt>
      <trkpt lat="47.91471" lon="5.36744">
        <ele>341.63</ele>
        <time>2022-01-12T12:52:09Z</time>
      </trkpt>
      <trkpt lat="47.91493" lon="5.3673">
        <ele>341.29</ele>
        <time>2022-01-12T12:52:28Z</time>
      </trkpt>
      <trkpt lat="47.91494" lon="5.36731">
        <ele>340.91</ele>
        <time>2022-01-12T12:52:51Z</time>
      </trkpt>
      <trkpt lat="47.91496" lon="5.36728">
        <ele>340.91</ele>
        <time>2022-01-12T12:52:58Z</time>
      </trkpt>
      <trkpt lat="47.91498" lon="5.36725">
        <ele>340.91</ele>
        <time>2022-01-12T12:53:00Z</time>
      </trkpt>
      <trkpt lat="47.91499" lon="5.36724">
        <ele>340.95</ele>
        <time>2022-01-12T12:53:01Z</time>
      </trkpt>
      <trkpt lat="47.915" lon="5.36723">
        <ele>340.95</ele>
        <time>2022-01-12T12:53:02Z</time>
      </trkpt>
      <trkpt lat="47.91508" lon="5.36708">
        <ele>341.09</ele>
        <time>2022-01-12T12:53:18Z</time>
      </trkpt>
      <trkpt lat="47.91508" lon="5.36707">
        <ele>341</ele>
        <time>2022-01-12T12:53:33Z</time>
      </trkpt>
      <trkpt lat="47.91509" lon="5.36701">
        <ele>341.11</ele>
        <time>2022-01-12T12:53:36Z</time>
      </trkpt>
      <trkpt lat="47.9151" lon="5.367">
        <ele>341.15</ele>
        <time>2022-01-12T12:53:37Z</time>
      </trkpt>
      <trkpt lat="47.91511" lon="5.36695">
        <ele>341.26</ele>
        <time>2022-01-12T12:53:49Z</time>
      </trkpt>
      <trkpt lat="47.91511" lon="5.36694">
        <ele>341.27</ele>
        <time>2022-01-12T12:53:50Z</time>
      </trkpt>
      <trkpt lat="47.91512" lon="5.36691">
        <ele>341.3</ele>
        <time>2022-01-12T12:53:52Z</time>
      </trkpt>
      <trkpt lat="47.91512" lon="5.36689">
        <ele>341.3</ele>
        <time>2022-01-12T12:53:53Z</time>
      </trkpt>
      <trkpt lat="47.91513" lon="5.36687">
        <ele>341.3</ele>
        <time>2022-01-12T12:53:54Z</time>
      </trkpt>
      <trkpt lat="47.91513" lon="5.36685">
        <ele>341.3</ele>
        <time>2022-01-12T12:53:55Z</time>
      </trkpt>
      <trkpt lat="47.91513" lon="5.36683">
        <ele>341.3</ele>
        <time>2022-01-12T12:53:56Z</time>
      </trkpt>
      <trkpt lat="47.91513" lon="5.36682">
        <ele>341.29</ele>
        <time>2022-01-12T12:53:57Z</time>
      </trkpt>
      <trkpt lat="47.91512" lon="5.3665">
        <ele>341.06</ele>
        <time>2022-01-12T12:54:13Z</time>
      </trkpt>
      <trkpt lat="47.91505" lon="5.36624">
        <ele>341.13</ele>
        <time>2022-01-12T12:54:28Z</time>
      </trkpt>
      <trkpt lat="47.91497" lon="5.366">
        <ele>341.41</ele>
        <time>2022-01-12T12:54:42Z</time>
      </trkpt>
      <trkpt lat="47.91487" lon="5.36563">
        <ele>342.47</ele>
        <time>2022-01-12T12:55:02Z</time>
      </trkpt>
      <trkpt lat="47.91486" lon="5.36536">
        <ele>342.38</ele>
        <time>2022-01-12T12:55:17Z</time>
      </trkpt>
      <trkpt lat="47.9149" lon="5.36495">
        <ele>342.57</ele>
        <time>2022-01-12T12:55:38Z</time>
      </trkpt>
      <trkpt lat="47.91499" lon="5.3647">
        <ele>342.63</ele>
        <time>2022-01-12T12:55:52Z</time>
      </trkpt>
      <trkpt lat="47.91511" lon="5.36452">
        <ele>342.95</ele>
        <time>2022-01-12T12:56:06Z</time>
      </trkpt>
      <trkpt lat="47.91528" lon="5.36431">
        <ele>343.32</ele>
        <time>2022-01-12T12:56:22Z</time>
      </trkpt>
      <trkpt lat="47.9154" lon="5.36423">
        <ele>343.32</ele>
        <time>2022-01-12T12:56:33Z</time>
      </trkpt>
      <trkpt lat="47.91554" lon="5.36412">
        <ele>343.37</ele>
        <time>2022-01-12T12:56:46Z</time>
      </trkpt>
      <trkpt lat="47.91568" lon="5.36392">
        <ele>343.06</ele>
        <time>2022-01-12T12:56:59Z</time>
      </trkpt>
      <trkpt lat="47.91584" lon="5.3638">
        <ele>342.42</ele>
        <time>2022-01-12T12:57:12Z</time>
      </trkpt>
      <trkpt lat="47.916" lon="5.36365">
        <ele>342.14</ele>
        <time>2022-01-12T12:57:26Z</time>
      </trkpt>
      <trkpt lat="47.91602" lon="5.36339">
        <ele>342.35</ele>
        <time>2022-01-12T12:57:41Z</time>
      </trkpt>
      <trkpt lat="47.91604" lon="5.36309">
        <ele>341.92</ele>
        <time>2022-01-12T12:57:56Z</time>
      </trkpt>
      <trkpt lat="47.91603" lon="5.3629">
        <ele>341.63</ele>
        <time>2022-01-12T12:58:08Z</time>
      </trkpt>
      <trkpt lat="47.91602" lon="5.36268">
        <ele>341.78</ele>
        <time>2022-01-12T12:58:20Z</time>
      </trkpt>
      <trkpt lat="47.91599" lon="5.36241">
        <ele>342.12</ele>
        <time>2022-01-12T12:58:33Z</time>
      </trkpt>
      <trkpt lat="47.91599" lon="5.36239">
        <ele>342.12</ele>
        <time>2022-01-12T12:58:34Z</time>
      </trkpt>
      <trkpt lat="47.91598" lon="5.36215">
        <ele>342.16</ele>
        <time>2022-01-12T12:58:46Z</time>
      </trkpt>
      <trkpt lat="47.916" lon="5.36201">
        <ele>341.89</ele>
        <time>2022-01-12T12:58:54Z</time>
      </trkpt>
      <trkpt lat="47.91602" lon="5.36181">
        <ele>341.56</ele>
        <time>2022-01-12T12:59:07Z</time>
      </trkpt>
      <trkpt lat="47.91604" lon="5.36153">
        <ele>341.62</ele>
        <time>2022-01-12T12:59:20Z</time>
      </trkpt>
      <trkpt lat="47.91604" lon="5.36129">
        <ele>341.74</ele>
        <time>2022-01-12T12:59:32Z</time>
      </trkpt>
      <trkpt lat="47.91607" lon="5.36109">
        <ele>341.95</ele>
        <time>2022-01-12T12:59:43Z</time>
      </trkpt>
      <trkpt lat="47.91608" lon="5.36086">
        <ele>342.32</ele>
        <time>2022-01-12T12:59:57Z</time>
      </trkpt>
      <trkpt lat="47.91609" lon="5.36075">
        <ele>342.32</ele>
        <time>2022-01-12T13:00:02Z</time>
      </trkpt>
      <trkpt lat="47.9161" lon="5.36059">
        <ele>342.4</ele>
        <time>2022-01-12T13:00:11Z</time>
      </trkpt>
      <trkpt lat="47.91611" lon="5.3605">
        <ele>342.4</ele>
        <time>2022-01-12T13:00:16Z</time>
      </trkpt>
      <trkpt lat="47.91614" lon="5.36036">
        <ele>342.67</ele>
        <time>2022-01-12T13:00:27Z</time>
      </trkpt>
      <trkpt lat="47.91613" lon="5.36029">
        <ele>342.67</ele>
        <time>2022-01-12T13:00:34Z</time>
      </trkpt>
      <trkpt lat="47.91613" lon="5.36025">
        <ele>342.67</ele>
        <time>2022-01-12T13:00:36Z</time>
      </trkpt>
      <trkpt lat="47.91617" lon="5.35997">
        <ele>342.66</ele>
        <time>2022-01-12T13:00:51Z</time>
      </trkpt>
      <trkpt lat="47.91624" lon="5.35968">
        <ele>342.62</ele>
        <time>2022-01-12T13:01:07Z</time>
      </trkpt>
      <trkpt lat="47.91635" lon="5.35935">
        <ele>342.89</ele>
        <time>2022-01-12T13:01:25Z</time>
      </trkpt>
      <trkpt lat="47.91643" lon="5.35912">
        <ele>342.86</ele>
        <time>2022-01-12T13:01:38Z</time>
      </trkpt>
      <trkpt lat="47.91654" lon="5.3589">
        <ele>342.94</ele>
        <time>2022-01-12T13:01:52Z</time>
      </trkpt>
      <trkpt lat="47.91668" lon="5.35868">
        <ele>343.4</ele>
        <time>2022-01-12T13:02:08Z</time>
      </trkpt>
      <trkpt lat="47.91679" lon="5.35849">
        <ele>343.26</ele>
        <time>2022-01-12T13:02:22Z</time>
      </trkpt>
      <trkpt lat="47.91693" lon="5.35829">
        <ele>343.63</ele>
        <time>2022-01-12T13:02:35Z</time>
      </trkpt>
      <trkpt lat="47.9171" lon="5.35808">
        <ele>343.68</ele>
        <time>2022-01-12T13:02:51Z</time>
      </trkpt>
      <trkpt lat="47.91725" lon="5.3579">
        <ele>343.62</ele>
        <time>2022-01-12T13:03:05Z</time>
      </trkpt>
      <trkpt lat="47.9174" lon="5.35773">
        <ele>343.72</ele>
        <time>2022-01-12T13:03:20Z</time>
      </trkpt>
      <trkpt lat="47.91744" lon="5.35762">
        <ele>343.33</ele>
        <time>2022-01-12T13:03:33Z</time>
      </trkpt>
      <trkpt lat="47.9174" lon="5.35761">
        <ele>342.89</ele>
        <time>2022-01-12T13:03:52Z</time>
      </trkpt>
      <trkpt lat="47.91739" lon="5.35761">
        <ele>342.55</ele>
        <time>2022-01-12T13:04:11Z</time>
      </trkpt>
      <trkpt lat="47.91751" lon="5.35754">
        <ele>342.52</ele>
        <time>2022-01-12T13:04:28Z</time>
      </trkpt>
      <trkpt lat="47.91753" lon="5.35753">
        <ele>342.56</ele>
        <time>2022-01-12T13:04:29Z</time>
      </trkpt>
      <trkpt lat="47.91757" lon="5.35751">
        <ele>342.67</ele>
        <time>2022-01-12T13:04:31Z</time>
      </trkpt>
      <trkpt lat="47.91758" lon="5.35749">
        <ele>342.73</ele>
        <time>2022-01-12T13:04:32Z</time>
      </trkpt>
      <trkpt lat="47.91759" lon="5.35748">
        <ele>342.79</ele>
        <time>2022-01-12T13:04:33Z</time>
      </trkpt>
      <trkpt lat="47.9176" lon="5.35747">
        <ele>342.83</ele>
        <time>2022-01-12T13:04:34Z</time>
      </trkpt>
      <trkpt lat="47.91761" lon="5.35745">
        <ele>342.85</ele>
        <time>2022-01-12T13:04:35Z</time>
      </trkpt>
      <trkpt lat="47.91763" lon="5.35743">
        <ele>342.87</ele>
        <time>2022-01-12T13:04:36Z</time>
      </trkpt>
      <trkpt lat="47.91764" lon="5.35742">
        <ele>342.9</ele>
        <time>2022-01-12T13:04:37Z</time>
      </trkpt>
      <trkpt lat="47.91765" lon="5.3574">
        <ele>342.93</ele>
        <time>2022-01-12T13:04:38Z</time>
      </trkpt>
      <trkpt lat="47.91778" lon="5.35717">
        <ele>343.08</ele>
        <time>2022-01-12T13:04:51Z</time>
      </trkpt>
      <trkpt lat="47.9179" lon="5.35694">
        <ele>343.17</ele>
        <time>2022-01-12T13:05:05Z</time>
      </trkpt>
      <trkpt lat="47.91804" lon="5.35666">
        <ele>343.07</ele>
        <time>2022-01-12T13:05:21Z</time>
      </trkpt>
      <trkpt lat="47.91814" lon="5.35639">
        <ele>342.63</ele>
        <time>2022-01-12T13:05:35Z</time>
      </trkpt>
      <trkpt lat="47.91817" lon="5.35631">
        <ele>342.53</ele>
        <time>2022-01-12T13:05:40Z</time>
      </trkpt>
      <trkpt lat="47.91818" lon="5.35629">
        <ele>342.53</ele>
        <time>2022-01-12T13:05:41Z</time>
      </trkpt>
      <trkpt lat="47.91818" lon="5.35627">
        <ele>342.47</ele>
        <time>2022-01-12T13:05:42Z</time>
      </trkpt>
      <trkpt lat="47.91819" lon="5.35625">
        <ele>342.43</ele>
        <time>2022-01-12T13:05:43Z</time>
      </trkpt>
      <trkpt lat="47.9182" lon="5.35623">
        <ele>342.38</ele>
        <time>2022-01-12T13:05:44Z</time>
      </trkpt>
      <trkpt lat="47.91826" lon="5.35587">
        <ele>341.32</ele>
        <time>2022-01-12T13:06:00Z</time>
      </trkpt>
      <trkpt lat="47.91831" lon="5.35547">
        <ele>339.8</ele>
        <time>2022-01-12T13:06:17Z</time>
      </trkpt>
      <trkpt lat="47.91838" lon="5.35509">
        <ele>338.1</ele>
        <time>2022-01-12T13:06:35Z</time>
      </trkpt>
      <trkpt lat="47.9185" lon="5.35475">
        <ele>336.51</ele>
        <time>2022-01-12T13:06:53Z</time>
      </trkpt>
      <trkpt lat="47.91861" lon="5.35441">
        <ele>335.27</ele>
        <time>2022-01-12T13:07:12Z</time>
      </trkpt>
      <trkpt lat="47.91875" lon="5.354">
        <ele>332.79</ele>
        <time>2022-01-12T13:07:34Z</time>
      </trkpt>
      <trkpt lat="47.91885" lon="5.35359">
        <ele>331.55</ele>
        <time>2022-01-12T13:07:55Z</time>
      </trkpt>
      <trkpt lat="47.91891" lon="5.35325">
        <ele>330.49</ele>
        <time>2022-01-12T13:08:13Z</time>
      </trkpt>
      <trkpt lat="47.91895" lon="5.3529">
        <ele>328.81</ele>
        <time>2022-01-12T13:08:31Z</time>
      </trkpt>
      <trkpt lat="47.919" lon="5.35258">
        <ele>327.5</ele>
        <time>2022-01-12T13:08:49Z</time>
      </trkpt>
      <trkpt lat="47.91903" lon="5.35232">
        <ele>326.89</ele>
        <time>2022-01-12T13:09:03Z</time>
      </trkpt>
      <trkpt lat="47.91912" lon="5.35201">
        <ele>325.49</ele>
        <time>2022-01-12T13:09:20Z</time>
      </trkpt>
      <trkpt lat="47.91923" lon="5.35178">
        <ele>325.09</ele>
        <time>2022-01-12T13:09:35Z</time>
      </trkpt>
      <trkpt lat="47.91937" lon="5.35157">
        <ele>325.01</ele>
        <time>2022-01-12T13:09:51Z</time>
      </trkpt>
      <trkpt lat="47.91953" lon="5.35134">
        <ele>324.51</ele>
        <time>2022-01-12T13:10:09Z</time>
      </trkpt>
      <trkpt lat="47.91963" lon="5.35121">
        <ele>324.72</ele>
        <time>2022-01-12T13:10:21Z</time>
      </trkpt>
      <trkpt lat="47.91976" lon="5.35109">
        <ele>324.94</ele>
        <time>2022-01-12T13:10:33Z</time>
      </trkpt>
      <trkpt lat="47.91983" lon="5.3509">
        <ele>325.04</ele>
        <time>2022-01-12T13:10:47Z</time>
      </trkpt>
      <trkpt lat="47.91977" lon="5.3508">
        <ele>325.14</ele>
        <time>2022-01-12T13:10:55Z</time>
      </trkpt>
      <trkpt lat="47.9197" lon="5.35074">
        <ele>325.13</ele>
        <time>2022-01-12T13:11:02Z</time>
      </trkpt>
      <trkpt lat="47.91968" lon="5.35071">
        <ele>325.09</ele>
        <time>2022-01-12T13:11:05Z</time>
      </trkpt>
      <trkpt lat="47.91966" lon="5.35069">
        <ele>325.09</ele>
        <time>2022-01-12T13:11:07Z</time>
      </trkpt>
      <trkpt lat="47.91965" lon="5.35068">
        <ele>325.09</ele>
        <time>2022-01-12T13:11:08Z</time>
      </trkpt>
      <trkpt lat="47.91944" lon="5.3505">
        <ele>324.37</ele>
        <time>2022-01-12T13:11:26Z</time>
      </trkpt>
      <trkpt lat="47.91925" lon="5.35035">
        <ele>323.98</ele>
        <time>2022-01-12T13:11:43Z</time>
      </trkpt>
      <trkpt lat="47.91902" lon="5.3503">
        <ele>323.6</ele>
        <time>2022-01-12T13:12:01Z</time>
      </trkpt>
      <trkpt lat="47.91879" lon="5.35034">
        <ele>323.89</ele>
        <time>2022-01-12T13:12:19Z</time>
      </trkpt>
      <trkpt lat="47.91867" lon="5.35037">
        <ele>323.98</ele>
        <time>2022-01-12T13:12:29Z</time>
      </trkpt>
      <trkpt lat="47.91865" lon="5.35038">
        <ele>323.98</ele>
        <time>2022-01-12T13:12:30Z</time>
      </trkpt>
      <trkpt lat="47.91847" lon="5.35043">
        <ele>324.14</ele>
        <time>2022-01-12T13:12:44Z</time>
      </trkpt>
      <trkpt lat="47.91826" lon="5.35046">
        <ele>324.09</ele>
        <time>2022-01-12T13:13:02Z</time>
      </trkpt>
      <trkpt lat="47.91825" lon="5.35048">
        <ele>324.11</ele>
        <time>2022-01-12T13:13:20Z</time>
      </trkpt>
      <trkpt lat="47.91825" lon="5.3505">
        <ele>324.27</ele>
        <time>2022-01-12T13:13:41Z</time>
      </trkpt>
      <trkpt lat="47.91824" lon="5.35052">
        <ele>324.37</ele>
        <time>2022-01-12T13:13:43Z</time>
      </trkpt>
      <trkpt lat="47.91824" lon="5.35052">
        <ele>324.56</ele>
        <time>2022-01-12T13:14:02Z</time>
      </trkpt>
      <trkpt lat="47.91825" lon="5.3505">
        <ele>324.75</ele>
        <time>2022-01-12T13:14:28Z</time>
      </trkpt>
      <trkpt lat="47.91826" lon="5.3505">
        <ele>324.93</ele>
        <time>2022-01-12T13:14:49Z</time>
      </trkpt>
      <trkpt lat="47.91825" lon="5.3505">
        <ele>325.07</ele>
        <time>2022-01-12T13:15:12Z</time>
      </trkpt>
      <trkpt lat="47.91825" lon="5.35051">
        <ele>325.07</ele>
        <time>2022-01-12T13:15:35Z</time>
      </trkpt>
      <trkpt lat="47.91825" lon="5.3505">
        <ele>325.07</ele>
        <time>2022-01-12T13:16:01Z</time>
      </trkpt>
      <trkpt lat="47.91825" lon="5.35048">
        <ele>325.07</ele>
        <time>2022-01-12T13:16:20Z</time>
      </trkpt>
      <trkpt lat="47.91824" lon="5.35036">
        <ele>324.99</ele>
        <time>2022-01-12T13:16:51Z</time>
      </trkpt>
      <trkpt lat="47.91825" lon="5.35047">
        <ele>324.89</ele>
        <time>2022-01-12T13:17:10Z</time>
      </trkpt>
      <trkpt lat="47.91824" lon="5.35048">
        <ele>324.82</ele>
        <time>2022-01-12T13:17:34Z</time>
      </trkpt>
      <trkpt lat="47.91824" lon="5.35051">
        <ele>324.98</ele>
        <time>2022-01-12T13:17:59Z</time>
      </trkpt>
      <trkpt lat="47.91817" lon="5.35051">
        <ele>324.93</ele>
        <time>2022-01-12T13:18:08Z</time>
      </trkpt>
      <trkpt lat="47.91816" lon="5.3505">
        <ele>324.88</ele>
        <time>2022-01-12T13:18:09Z</time>
      </trkpt>
      <trkpt lat="47.91815" lon="5.35049">
        <ele>324.84</ele>
        <time>2022-01-12T13:18:10Z</time>
      </trkpt>
      <trkpt lat="47.91814" lon="5.35048">
        <ele>324.82</ele>
        <time>2022-01-12T13:18:11Z</time>
      </trkpt>
      <trkpt lat="47.91813" lon="5.35047">
        <ele>324.81</ele>
        <time>2022-01-12T13:18:12Z</time>
      </trkpt>
      <trkpt lat="47.91812" lon="5.35046">
        <ele>324.8</ele>
        <time>2022-01-12T13:18:13Z</time>
      </trkpt>
      <trkpt lat="47.91808" lon="5.35044">
        <ele>324.85</ele>
        <time>2022-01-12T13:18:25Z</time>
      </trkpt>
      <trkpt lat="47.91802" lon="5.35041">
        <ele>324.85</ele>
        <time>2022-01-12T13:18:37Z</time>
      </trkpt>
      <trkpt lat="47.91788" lon="5.35031">
        <ele>325.17</ele>
        <time>2022-01-12T13:18:52Z</time>
      </trkpt>
      <trkpt lat="47.91774" lon="5.35023">
        <ele>325.56</ele>
        <time>2022-01-12T13:19:07Z</time>
      </trkpt>
      <trkpt lat="47.91764" lon="5.35035">
        <ele>326.14</ele>
        <time>2022-01-12T13:19:21Z</time>
      </trkpt>
      <trkpt lat="47.91758" lon="5.35057">
        <ele>326.94</ele>
        <time>2022-01-12T13:19:37Z</time>
      </trkpt>
      <trkpt lat="47.91754" lon="5.35074">
        <ele>327.68</ele>
        <time>2022-01-12T13:19:51Z</time>
      </trkpt>
      <trkpt lat="47.91754" lon="5.35086">
        <ele>327.78</ele>
        <time>2022-01-12T13:20:01Z</time>
      </trkpt>
      <trkpt lat="47.9175" lon="5.35111">
        <ele>327.85</ele>
        <time>2022-01-12T13:20:17Z</time>
      </trkpt>
      <trkpt lat="47.91743" lon="5.35136">
        <ele>327.81</ele>
        <time>2022-01-12T13:20:33Z</time>
      </trkpt>
      <trkpt lat="47.91735" lon="5.35164">
        <ele>327.85</ele>
        <time>2022-01-12T13:20:49Z</time>
      </trkpt>
      <trkpt lat="47.91726" lon="5.35187">
        <ele>327.98</ele>
        <time>2022-01-12T13:21:04Z</time>
      </trkpt>
      <trkpt lat="47.91712" lon="5.35222">
        <ele>328.06</ele>
        <time>2022-01-12T13:21:26Z</time>
      </trkpt>
      <trkpt lat="47.91703" lon="5.35242">
        <ele>328.4</ele>
        <time>2022-01-12T13:21:39Z</time>
      </trkpt>
      <trkpt lat="47.91695" lon="5.35261">
        <ele>328.71</ele>
        <time>2022-01-12T13:21:53Z</time>
      </trkpt>
      <trkpt lat="47.91683" lon="5.35279">
        <ele>328.92</ele>
        <time>2022-01-12T13:22:09Z</time>
      </trkpt>
      <trkpt lat="47.91673" lon="5.35291">
        <ele>329.24</ele>
        <time>2022-01-12T13:22:22Z</time>
      </trkpt>
      <trkpt lat="47.91662" lon="5.35308">
        <ele>329.26</ele>
        <time>2022-01-12T13:22:35Z</time>
      </trkpt>
      <trkpt lat="47.91641" lon="5.35329">
        <ele>330.28</ele>
        <time>2022-01-12T13:22:56Z</time>
      </trkpt>
      <trkpt lat="47.91626" lon="5.3533">
        <ele>330.6</ele>
        <time>2022-01-12T13:23:12Z</time>
      </trkpt>
      <trkpt lat="47.91612" lon="5.3533">
        <ele>330.86</ele>
        <time>2022-01-12T13:23:26Z</time>
      </trkpt>
      <trkpt lat="47.91596" lon="5.35323">
        <ele>331.37</ele>
        <time>2022-01-12T13:23:40Z</time>
      </trkpt>
      <trkpt lat="47.91585" lon="5.35316">
        <ele>331.92</ele>
        <time>2022-01-12T13:23:54Z</time>
      </trkpt>
      <trkpt lat="47.91584" lon="5.35316">
        <ele>331.94</ele>
        <time>2022-01-12T13:23:55Z</time>
      </trkpt>
      <trkpt lat="47.91582" lon="5.35314">
        <ele>331.96</ele>
        <time>2022-01-12T13:23:57Z</time>
      </trkpt>
      <trkpt lat="47.91581" lon="5.35314">
        <ele>331.97</ele>
        <time>2022-01-12T13:23:58Z</time>
      </trkpt>
      <trkpt lat="47.9158" lon="5.35313">
        <ele>331.97</ele>
        <time>2022-01-12T13:23:59Z</time>
      </trkpt>
      <trkpt lat="47.91567" lon="5.35299">
        <ele>332.64</ele>
        <time>2022-01-12T13:24:14Z</time>
      </trkpt>
      <trkpt lat="47.91556" lon="5.35287">
        <ele>333.13</ele>
        <time>2022-01-12T13:24:27Z</time>
      </trkpt>
      <trkpt lat="47.91542" lon="5.35274">
        <ele>333.94</ele>
        <time>2022-01-12T13:24:42Z</time>
      </trkpt>
      <trkpt lat="47.91539" lon="5.35264">
        <ele>334.57</ele>
        <time>2022-01-12T13:25:00Z</time>
      </trkpt>
      <trkpt lat="47.91524" lon="5.35252">
        <ele>335.3</ele>
        <time>2022-01-12T13:25:13Z</time>
      </trkpt>
      <trkpt lat="47.91507" lon="5.35234">
        <ele>336.27</ele>
        <time>2022-01-12T13:25:29Z</time>
      </trkpt>
      <trkpt lat="47.91486" lon="5.35219">
        <ele>337.41</ele>
        <time>2022-01-12T13:25:45Z</time>
      </trkpt>
      <trkpt lat="47.9147" lon="5.3521">
        <ele>338.47</ele>
        <time>2022-01-12T13:25:59Z</time>
      </trkpt>
      <trkpt lat="47.91454" lon="5.35201">
        <ele>339.42</ele>
        <time>2022-01-12T13:26:13Z</time>
      </trkpt>
      <trkpt lat="47.91443" lon="5.35196">
        <ele>340.26</ele>
        <time>2022-01-12T13:26:29Z</time>
      </trkpt>
      <trkpt lat="47.91436" lon="5.35198">
        <ele>340.77</ele>
        <time>2022-01-12T13:26:43Z</time>
      </trkpt>
      <trkpt lat="47.91417" lon="5.35199">
        <ele>341.23</ele>
        <time>2022-01-12T13:27:00Z</time>
      </trkpt>
      <trkpt lat="47.914" lon="5.35212">
        <ele>342.23</ele>
        <time>2022-01-12T13:27:17Z</time>
      </trkpt>
      <trkpt lat="47.91383" lon="5.35237">
        <ele>342.59</ele>
        <time>2022-01-12T13:27:34Z</time>
      </trkpt>
      <trkpt lat="47.91372" lon="5.35242">
        <ele>342.64</ele>
        <time>2022-01-12T13:27:44Z</time>
      </trkpt>
      <trkpt lat="47.91354" lon="5.35241">
        <ele>343.27</ele>
        <time>2022-01-12T13:27:59Z</time>
      </trkpt>
      <trkpt lat="47.91338" lon="5.35239">
        <ele>344.35</ele>
        <time>2022-01-12T13:28:15Z</time>
      </trkpt>
      <trkpt lat="47.91335" lon="5.35238">
        <ele>344.49</ele>
        <time>2022-01-12T13:28:17Z</time>
      </trkpt>
      <trkpt lat="47.91334" lon="5.35238">
        <ele>344.58</ele>
        <time>2022-01-12T13:28:18Z</time>
      </trkpt>
      <trkpt lat="47.91317" lon="5.35239">
        <ele>345.74</ele>
        <time>2022-01-12T13:28:33Z</time>
      </trkpt>
      <trkpt lat="47.91298" lon="5.35243">
        <ele>347.27</ele>
        <time>2022-01-12T13:28:52Z</time>
      </trkpt>
      <trkpt lat="47.91282" lon="5.35247">
        <ele>348.69</ele>
        <time>2022-01-12T13:29:09Z</time>
      </trkpt>
      <trkpt lat="47.91271" lon="5.35247">
        <ele>349.99</ele>
        <time>2022-01-12T13:29:27Z</time>
      </trkpt>
      <trkpt lat="47.9127" lon="5.35246">
        <ele>350.73</ele>
        <time>2022-01-12T13:29:49Z</time>
      </trkpt>
      <trkpt lat="47.91268" lon="5.35248">
        <ele>350.82</ele>
        <time>2022-01-12T13:30:05Z</time>
      </trkpt>
      <trkpt lat="47.91263" lon="5.35248">
        <ele>350.85</ele>
        <time>2022-01-12T13:30:11Z</time>
      </trkpt>
      <trkpt lat="47.91257" lon="5.35248">
        <ele>351.46</ele>
        <time>2022-01-12T13:30:24Z</time>
      </trkpt>
      <trkpt lat="47.91257" lon="5.35249">
        <ele>351.89</ele>
        <time>2022-01-12T13:30:45Z</time>
      </trkpt>
      <trkpt lat="47.91257" lon="5.35247">
        <ele>351.91</ele>
        <time>2022-01-12T13:31:11Z</time>
      </trkpt>
      <trkpt lat="47.91252" lon="5.35247">
        <ele>351.91</ele>
        <time>2022-01-12T13:31:27Z</time>
      </trkpt>
      <trkpt lat="47.9124" lon="5.35254">
        <ele>352.33</ele>
        <time>2022-01-12T13:31:42Z</time>
      </trkpt>
      <trkpt lat="47.91239" lon="5.35254">
        <ele>352.41</ele>
        <time>2022-01-12T13:31:43Z</time>
      </trkpt>
      <trkpt lat="47.91237" lon="5.35255">
        <ele>352.6</ele>
        <time>2022-01-12T13:31:46Z</time>
      </trkpt>
      <trkpt lat="47.91234" lon="5.35258">
        <ele>352.82</ele>
        <time>2022-01-12T13:31:49Z</time>
      </trkpt>
      <trkpt lat="47.9122" lon="5.35267">
        <ele>353.77</ele>
        <time>2022-01-12T13:32:03Z</time>
      </trkpt>
      <trkpt lat="47.91219" lon="5.35267">
        <ele>353.82</ele>
        <time>2022-01-12T13:32:04Z</time>
      </trkpt>
      <trkpt lat="47.91217" lon="5.35268">
        <ele>353.89</ele>
        <time>2022-01-12T13:32:05Z</time>
      </trkpt>
      <trkpt lat="47.91216" lon="5.35268">
        <ele>353.97</ele>
        <time>2022-01-12T13:32:06Z</time>
      </trkpt>
      <trkpt lat="47.91215" lon="5.35268">
        <ele>354.06</ele>
        <time>2022-01-12T13:32:07Z</time>
      </trkpt>
      <trkpt lat="47.91214" lon="5.35268">
        <ele>354.11</ele>
        <time>2022-01-12T13:32:08Z</time>
      </trkpt>
      <trkpt lat="47.91204" lon="5.3527">
        <ele>354.95</ele>
        <time>2022-01-12T13:32:21Z</time>
      </trkpt>
      <trkpt lat="47.9119" lon="5.35275">
        <ele>355.61</ele>
        <time>2022-01-12T13:32:36Z</time>
      </trkpt>
      <trkpt lat="47.91172" lon="5.3528">
        <ele>356.01</ele>
        <time>2022-01-12T13:32:52Z</time>
      </trkpt>
      <trkpt lat="47.91156" lon="5.35284">
        <ele>356.38</ele>
        <time>2022-01-12T13:33:07Z</time>
      </trkpt>
      <trkpt lat="47.91136" lon="5.35292">
        <ele>356.7</ele>
        <time>2022-01-12T13:33:24Z</time>
      </trkpt>
      <trkpt lat="47.91119" lon="5.35302">
        <ele>357.02</ele>
        <time>2022-01-12T13:33:39Z</time>
      </trkpt>
      <trkpt lat="47.91101" lon="5.3531">
        <ele>357.39</ele>
        <time>2022-01-12T13:33:56Z</time>
      </trkpt>
      <trkpt lat="47.91084" lon="5.35323">
        <ele>358.01</ele>
        <time>2022-01-12T13:34:11Z</time>
      </trkpt>
      <trkpt lat="47.91066" lon="5.35336">
        <ele>358.85</ele>
        <time>2022-01-12T13:34:28Z</time>
      </trkpt>
      <trkpt lat="47.91049" lon="5.35351">
        <ele>359.85</ele>
        <time>2022-01-12T13:34:46Z</time>
      </trkpt>
      <trkpt lat="47.91032" lon="5.35367">
        <ele>361.14</ele>
        <time>2022-01-12T13:35:04Z</time>
      </trkpt>
      <trkpt lat="47.9102" lon="5.35383">
        <ele>362.43</ele>
        <time>2022-01-12T13:35:20Z</time>
      </trkpt>
      <trkpt lat="47.91006" lon="5.35415">
        <ele>363.1</ele>
        <time>2022-01-12T13:35:41Z</time>
      </trkpt>
      <trkpt lat="47.90999" lon="5.35446">
        <ele>363.77</ele>
        <time>2022-01-12T13:36:00Z</time>
      </trkpt>
      <trkpt lat="47.90995" lon="5.35479">
        <ele>365.08</ele>
        <time>2022-01-12T13:36:20Z</time>
      </trkpt>
      <trkpt lat="47.90993" lon="5.35506">
        <ele>366.02</ele>
        <time>2022-01-12T13:36:37Z</time>
      </trkpt>
      <trkpt lat="47.90987" lon="5.35535">
        <ele>366.92</ele>
        <time>2022-01-12T13:36:55Z</time>
      </trkpt>
      <trkpt lat="47.90979" lon="5.35572">
        <ele>367.62</ele>
        <time>2022-01-12T13:37:17Z</time>
      </trkpt>
      <trkpt lat="47.9097" lon="5.35609">
        <ele>368.43</ele>
        <time>2022-01-12T13:37:39Z</time>
      </trkpt>
      <trkpt lat="47.90958" lon="5.35644">
        <ele>369.18</ele>
        <time>2022-01-12T13:38:01Z</time>
      </trkpt>
      <trkpt lat="47.90945" lon="5.35675">
        <ele>370.1</ele>
        <time>2022-01-12T13:38:22Z</time>
      </trkpt>
      <trkpt lat="47.90929" lon="5.35706">
        <ele>370.56</ele>
        <time>2022-01-12T13:38:44Z</time>
      </trkpt>
      <trkpt lat="47.90908" lon="5.35739">
        <ele>371.05</ele>
        <time>2022-01-12T13:39:09Z</time>
      </trkpt>
      <trkpt lat="47.90889" lon="5.35765">
        <ele>371.45</ele>
        <time>2022-01-12T13:39:31Z</time>
      </trkpt>
      <trkpt lat="47.90871" lon="5.35788">
        <ele>371.56</ele>
        <time>2022-01-12T13:39:51Z</time>
      </trkpt>
      <trkpt lat="47.90854" lon="5.35807">
        <ele>372.2</ele>
        <time>2022-01-12T13:40:10Z</time>
      </trkpt>
      <trkpt lat="47.90833" lon="5.35827">
        <ele>372.97</ele>
        <time>2022-01-12T13:40:32Z</time>
      </trkpt>
      <trkpt lat="47.90813" lon="5.35848">
        <ele>373.47</ele>
        <time>2022-01-12T13:40:53Z</time>
      </trkpt>
      <trkpt lat="47.90795" lon="5.35867">
        <ele>374.17</ele>
        <time>2022-01-12T13:41:12Z</time>
      </trkpt>
      <trkpt lat="47.90776" lon="5.35888">
        <ele>374.98</ele>
        <time>2022-01-12T13:41:33Z</time>
      </trkpt>
      <trkpt lat="47.90755" lon="5.35911">
        <ele>376.18</ele>
        <time>2022-01-12T13:41:57Z</time>
      </trkpt>
      <trkpt lat="47.90738" lon="5.35933">
        <ele>377.36</ele>
        <time>2022-01-12T13:42:17Z</time>
      </trkpt>
      <trkpt lat="47.90722" lon="5.35953">
        <ele>377.99</ele>
        <time>2022-01-12T13:42:34Z</time>
      </trkpt>
      <trkpt lat="47.90705" lon="5.35977">
        <ele>378.81</ele>
        <time>2022-01-12T13:42:55Z</time>
      </trkpt>
      <trkpt lat="47.90691" lon="5.35995">
        <ele>379.37</ele>
        <time>2022-01-12T13:43:12Z</time>
      </trkpt>
      <trkpt lat="47.90675" lon="5.36018">
        <ele>379.96</ele>
        <time>2022-01-12T13:43:32Z</time>
      </trkpt>
      <trkpt lat="47.90657" lon="5.36041">
        <ele>380.15</ele>
        <time>2022-01-12T13:43:52Z</time>
      </trkpt>
      <trkpt lat="47.90639" lon="5.3606">
        <ele>380.12</ele>
        <time>2022-01-12T13:44:11Z</time>
      </trkpt>
      <trkpt lat="47.90616" lon="5.36081">
        <ele>379.81</ele>
        <time>2022-01-12T13:44:34Z</time>
      </trkpt>
      <trkpt lat="47.90597" lon="5.36095">
        <ele>379.55</ele>
        <time>2022-01-12T13:44:51Z</time>
      </trkpt>
      <trkpt lat="47.90577" lon="5.3611">
        <ele>379.36</ele>
        <time>2022-01-12T13:45:11Z</time>
      </trkpt>
      <trkpt lat="47.90556" lon="5.36127">
        <ele>379.08</ele>
        <time>2022-01-12T13:45:30Z</time>
      </trkpt>
      <trkpt lat="47.90538" lon="5.36148">
        <ele>379.18</ele>
        <time>2022-01-12T13:45:50Z</time>
      </trkpt>
      <trkpt lat="47.90522" lon="5.3617">
        <ele>379.56</ele>
        <time>2022-01-12T13:46:10Z</time>
      </trkpt>
      <trkpt lat="47.90514" lon="5.36187">
        <ele>380.4</ele>
        <time>2022-01-12T13:46:26Z</time>
      </trkpt>
      <trkpt lat="47.90518" lon="5.36192">
        <ele>380.51</ele>
        <time>2022-01-12T13:46:37Z</time>
      </trkpt>
      <trkpt lat="47.90519" lon="5.36193">
        <ele>380.53</ele>
        <time>2022-01-12T13:46:39Z</time>
      </trkpt>
      <trkpt lat="47.90523" lon="5.362">
        <ele>380.33</ele>
        <time>2022-01-12T13:46:52Z</time>
      </trkpt>
      <trkpt lat="47.90525" lon="5.36202">
        <ele>380.16</ele>
        <time>2022-01-12T13:47:07Z</time>
      </trkpt>
      <trkpt lat="47.90532" lon="5.36204">
        <ele>380.3</ele>
        <time>2022-01-12T13:47:20Z</time>
      </trkpt>
      <trkpt lat="47.90533" lon="5.36205">
        <ele>380.24</ele>
        <time>2022-01-12T13:47:21Z</time>
      </trkpt>
      <trkpt lat="47.90534" lon="5.36205">
        <ele>380.16</ele>
        <time>2022-01-12T13:47:22Z</time>
      </trkpt>
      <trkpt lat="47.90535" lon="5.36206">
        <ele>380.08</ele>
        <time>2022-01-12T13:47:23Z</time>
      </trkpt>
      <trkpt lat="47.90536" lon="5.36206">
        <ele>380</ele>
        <time>2022-01-12T13:47:24Z</time>
      </trkpt>
      <trkpt lat="47.90538" lon="5.36207">
        <ele>379.93</ele>
        <time>2022-01-12T13:47:25Z</time>
      </trkpt>
      <trkpt lat="47.90539" lon="5.36207">
        <ele>379.88</ele>
        <time>2022-01-12T13:47:26Z</time>
      </trkpt>
      <trkpt lat="47.90555" lon="5.36209">
        <ele>379.12</ele>
        <time>2022-01-12T13:47:40Z</time>
      </trkpt>
      <trkpt lat="47.90578" lon="5.36215">
        <ele>377.37</ele>
        <time>2022-01-12T13:47:58Z</time>
      </trkpt>
      <trkpt lat="47.906" lon="5.36218">
        <ele>376.02</ele>
        <time>2022-01-12T13:48:16Z</time>
      </trkpt>
      <trkpt lat="47.90622" lon="5.36222">
        <ele>374.28</ele>
        <time>2022-01-12T13:48:35Z</time>
      </trkpt>
      <trkpt lat="47.90638" lon="5.36224">
        <ele>373.11</ele>
        <time>2022-01-12T13:48:52Z</time>
      </trkpt>
      <trkpt lat="47.90652" lon="5.3623">
        <ele>372.13</ele>
        <time>2022-01-12T13:49:07Z</time>
      </trkpt>
      <trkpt lat="47.90666" lon="5.36238">
        <ele>370.98</ele>
        <time>2022-01-12T13:49:24Z</time>
      </trkpt>
      <trkpt lat="47.90678" lon="5.3625">
        <ele>369.59</ele>
        <time>2022-01-12T13:49:41Z</time>
      </trkpt>
      <trkpt lat="47.90679" lon="5.36251">
        <ele>369.53</ele>
        <time>2022-01-12T13:49:42Z</time>
      </trkpt>
      <trkpt lat="47.9068" lon="5.36252">
        <ele>369.48</ele>
        <time>2022-01-12T13:49:43Z</time>
      </trkpt>
      <trkpt lat="47.9069" lon="5.36268">
        <ele>368.21</ele>
        <time>2022-01-12T13:49:59Z</time>
      </trkpt>
      <trkpt lat="47.90695" lon="5.36274">
        <ele>367.64</ele>
        <time>2022-01-12T13:50:11Z</time>
      </trkpt>
      <trkpt lat="47.90703" lon="5.36293">
        <ele>366.9</ele>
        <time>2022-01-12T13:50:27Z</time>
      </trkpt>
      <trkpt lat="47.90704" lon="5.36297">
        <ele>366.75</ele>
        <time>2022-01-12T13:50:30Z</time>
      </trkpt>
      <trkpt lat="47.90708" lon="5.36308">
        <ele>366</ele>
        <time>2022-01-12T13:50:40Z</time>
      </trkpt>
      <trkpt lat="47.90713" lon="5.3632">
        <ele>365.35</ele>
        <time>2022-01-12T13:50:50Z</time>
      </trkpt>
      <trkpt lat="47.90719" lon="5.36341">
        <ele>363.93</ele>
        <time>2022-01-12T13:51:06Z</time>
      </trkpt>
      <trkpt lat="47.90726" lon="5.3636">
        <ele>362.82</ele>
        <time>2022-01-12T13:51:22Z</time>
      </trkpt>
      <trkpt lat="47.90732" lon="5.36376">
        <ele>362.02</ele>
        <time>2022-01-12T13:51:37Z</time>
      </trkpt>
      <trkpt lat="47.90741" lon="5.36404">
        <ele>360.74</ele>
        <time>2022-01-12T13:51:59Z</time>
      </trkpt>
      <trkpt lat="47.90748" lon="5.36436">
        <ele>358.99</ele>
        <time>2022-01-12T13:52:21Z</time>
      </trkpt>
      <trkpt lat="47.90758" lon="5.36461">
        <ele>357.58</ele>
        <time>2022-01-12T13:52:41Z</time>
      </trkpt>
      <trkpt lat="47.90775" lon="5.36479">
        <ele>355.89</ele>
        <time>2022-01-12T13:53:03Z</time>
      </trkpt>
      <trkpt lat="47.90793" lon="5.36492">
        <ele>354.72</ele>
        <time>2022-01-12T13:53:23Z</time>
      </trkpt>
      <trkpt lat="47.90813" lon="5.36503">
        <ele>353.37</ele>
        <time>2022-01-12T13:53:44Z</time>
      </trkpt>
      <trkpt lat="47.90815" lon="5.36505">
        <ele>353.25</ele>
        <time>2022-01-12T13:53:46Z</time>
      </trkpt>
      <trkpt lat="47.90825" lon="5.36515">
        <ele>352.25</ele>
        <time>2022-01-12T13:53:59Z</time>
      </trkpt>
      <trkpt lat="47.90828" lon="5.3652">
        <ele>351.85</ele>
        <time>2022-01-12T13:54:04Z</time>
      </trkpt>
      <trkpt lat="47.9083" lon="5.36521">
        <ele>351.7</ele>
        <time>2022-01-12T13:54:06Z</time>
      </trkpt>
      <trkpt lat="47.90839" lon="5.36532">
        <ele>350.89</ele>
        <time>2022-01-12T13:54:17Z</time>
      </trkpt>
      <trkpt lat="47.90839" lon="5.36533">
        <ele>350.89</ele>
        <time>2022-01-12T13:54:18Z</time>
      </trkpt>
      <trkpt lat="47.90848" lon="5.36545">
        <ele>349.99</ele>
        <time>2022-01-12T13:54:33Z</time>
      </trkpt>
      <trkpt lat="47.90862" lon="5.3656">
        <ele>349.04</ele>
        <time>2022-01-12T13:54:52Z</time>
      </trkpt>
      <trkpt lat="47.90882" lon="5.36582">
        <ele>347.38</ele>
        <time>2022-01-12T13:55:17Z</time>
      </trkpt>
      <trkpt lat="47.90899" lon="5.36599">
        <ele>346.19</ele>
        <time>2022-01-12T13:55:39Z</time>
      </trkpt>
      <trkpt lat="47.90912" lon="5.36611">
        <ele>344.71</ele>
        <time>2022-01-12T13:55:58Z</time>
      </trkpt>
      <trkpt lat="47.90919" lon="5.3662">
        <ele>344.16</ele>
        <time>2022-01-12T13:56:08Z</time>
      </trkpt>
      <trkpt lat="47.90936" lon="5.36634">
        <ele>343.12</ele>
        <time>2022-01-12T13:56:29Z</time>
      </trkpt>
      <trkpt lat="47.9095" lon="5.3665">
        <ele>343</ele>
        <time>2022-01-12T13:56:45Z</time>
      </trkpt>
      <trkpt lat="47.90965" lon="5.36659">
        <ele>342.76</ele>
        <time>2022-01-12T13:57:00Z</time>
      </trkpt>
      <trkpt lat="47.90973" lon="5.36665">
        <ele>344.52</ele>
        <time>2022-01-12T13:57:15Z</time>
      </trkpt>
      <trkpt lat="47.90985" lon="5.36667">
        <ele>347.36</ele>
        <time>2022-01-12T13:57:37Z</time>
      </trkpt>
      <trkpt lat="47.90988" lon="5.36663">
        <ele>347.44</ele>
        <time>2022-01-12T13:57:57Z</time>
      </trkpt>
      <trkpt lat="47.90991" lon="5.36667">
        <ele>347.4</ele>
        <time>2022-01-12T13:58:14Z</time>
      </trkpt>
      <trkpt lat="47.90991" lon="5.3668">
        <ele>347.23</ele>
        <time>2022-01-12T13:58:36Z</time>
      </trkpt>
      <trkpt lat="47.9099" lon="5.3668">
        <ele>347.23</ele>
        <time>2022-01-12T13:58:58Z</time>
      </trkpt>
      <trkpt lat="47.9099" lon="5.3668">
        <ele>347.23</ele>
        <time>2022-01-12T13:59:19Z</time>
      </trkpt>
      <trkpt lat="47.9099" lon="5.3668">
        <ele>347.23</ele>
        <time>2022-01-12T13:59:43Z</time>
      </trkpt>
      <trkpt lat="47.90991" lon="5.36678">
        <ele>347.23</ele>
        <time>2022-01-12T14:00:09Z</time>
      </trkpt>
      <trkpt lat="47.90993" lon="5.36678">
        <ele>347.23</ele>
        <time>2022-01-12T14:00:29Z</time>
      </trkpt>
      <trkpt lat="47.90994" lon="5.3668">
        <ele>347.23</ele>
        <time>2022-01-12T14:00:56Z</time>
      </trkpt>
      <trkpt lat="47.90994" lon="5.36677">
        <ele>347.23</ele>
        <time>2022-01-12T14:01:18Z</time>
      </trkpt>
      <trkpt lat="47.90991" lon="5.36691">
        <ele>347.23</ele>
        <time>2022-01-12T14:01:37Z</time>
      </trkpt>
      <trkpt lat="47.90985" lon="5.36722">
        <ele>347.23</ele>
        <time>2022-01-12T14:02:01Z</time>
      </trkpt>
      <trkpt lat="47.90982" lon="5.36749">
        <ele>346.99</ele>
        <time>2022-01-12T14:02:18Z</time>
      </trkpt>
      <trkpt lat="47.90979" lon="5.36771">
        <ele>346.62</ele>
        <time>2022-01-12T14:02:32Z</time>
      </trkpt>
      <trkpt lat="47.9098" lon="5.36799">
        <ele>346.22</ele>
        <time>2022-01-12T14:02:54Z</time>
      </trkpt>
      <trkpt lat="47.90977" lon="5.36835">
        <ele>345.68</ele>
        <time>2022-01-12T14:03:16Z</time>
      </trkpt>
      <trkpt lat="47.90977" lon="5.36856">
        <ele>345.5</ele>
        <time>2022-01-12T14:03:28Z</time>
      </trkpt>
      <trkpt lat="47.90978" lon="5.36885">
        <ele>345.52</ele>
        <time>2022-01-12T14:03:47Z</time>
      </trkpt>
      <trkpt lat="47.90979" lon="5.36908">
        <ele>345.6</ele>
        <time>2022-01-12T14:04:01Z</time>
      </trkpt>
      <trkpt lat="47.90984" lon="5.36936">
        <ele>343.65</ele>
        <time>2022-01-12T14:04:20Z</time>
      </trkpt>
      <trkpt lat="47.90986" lon="5.3696">
        <ele>343.4</ele>
        <time>2022-01-12T14:04:36Z</time>
      </trkpt>
      <trkpt lat="47.90991" lon="5.36983">
        <ele>343.34</ele>
        <time>2022-01-12T14:04:52Z</time>
      </trkpt>
      <trkpt lat="47.91" lon="5.37002">
        <ele>342.82</ele>
        <time>2022-01-12T14:05:07Z</time>
      </trkpt>
      <trkpt lat="47.91008" lon="5.37027">
        <ele>342.66</ele>
        <time>2022-01-12T14:05:23Z</time>
      </trkpt>
      <trkpt lat="47.91013" lon="5.37051">
        <ele>342.44</ele>
        <time>2022-01-12T14:05:39Z</time>
      </trkpt>
      <trkpt lat="47.91019" lon="5.37077">
        <ele>342.57</ele>
        <time>2022-01-12T14:05:55Z</time>
      </trkpt>
      <trkpt lat="47.91024" lon="5.37106">
        <ele>342.59</ele>
        <time>2022-01-12T14:06:12Z</time>
      </trkpt>
      <trkpt lat="47.91034" lon="5.37138">
        <ele>342.6</ele>
        <time>2022-01-12T14:06:33Z</time>
      </trkpt>
      <trkpt lat="47.9104" lon="5.3717">
        <ele>342.54</ele>
        <time>2022-01-12T14:06:53Z</time>
      </trkpt>
      <trkpt lat="47.91043" lon="5.372">
        <ele>342.49</ele>
        <time>2022-01-12T14:07:12Z</time>
      </trkpt>
      <trkpt lat="47.91042" lon="5.3723">
        <ele>342.6</ele>
        <time>2022-01-12T14:07:30Z</time>
      </trkpt>
      <trkpt lat="47.91048" lon="5.3725">
        <ele>342.2</ele>
        <time>2022-01-12T14:07:45Z</time>
      </trkpt>
      <trkpt lat="47.91043" lon="5.3729">
        <ele>341.95</ele>
        <time>2022-01-12T14:08:08Z</time>
      </trkpt>
      <trkpt lat="47.91033" lon="5.37323">
        <ele>342.86</ele>
        <time>2022-01-12T14:08:30Z</time>
      </trkpt>
      <trkpt lat="47.91033" lon="5.37357">
        <ele>342.24</ele>
        <time>2022-01-12T14:08:51Z</time>
      </trkpt>
      <trkpt lat="47.91034" lon="5.3738">
        <ele>342</ele>
        <time>2022-01-12T14:09:08Z</time>
      </trkpt>
      <trkpt lat="47.91027" lon="5.37407">
        <ele>342</ele>
        <time>2022-01-12T14:09:25Z</time>
      </trkpt>
      <trkpt lat="47.91025" lon="5.37437">
        <ele>343.31</ele>
        <time>2022-01-12T14:09:44Z</time>
      </trkpt>
      <trkpt lat="47.91023" lon="5.37463">
        <ele>343.01</ele>
        <time>2022-01-12T14:10:01Z</time>
      </trkpt>
      <trkpt lat="47.91022" lon="5.37486">
        <ele>342.52</ele>
        <time>2022-01-12T14:10:16Z</time>
      </trkpt>
      <trkpt lat="47.91019" lon="5.37508">
        <ele>342.57</ele>
        <time>2022-01-12T14:10:29Z</time>
      </trkpt>
      <trkpt lat="47.91017" lon="5.37533">
        <ele>341.96</ele>
        <time>2022-01-12T14:10:45Z</time>
      </trkpt>
      <trkpt lat="47.91013" lon="5.37565">
        <ele>342.09</ele>
        <time>2022-01-12T14:11:04Z</time>
      </trkpt>
      <trkpt lat="47.91011" lon="5.37593">
        <ele>342.1</ele>
        <time>2022-01-12T14:11:22Z</time>
      </trkpt>
      <trkpt lat="47.91005" lon="5.37617">
        <ele>342.21</ele>
        <time>2022-01-12T14:11:39Z</time>
      </trkpt>
      <trkpt lat="47.90998" lon="5.3764">
        <ele>342.04</ele>
        <time>2022-01-12T14:12:00Z</time>
      </trkpt>
      <trkpt lat="47.90994" lon="5.3766">
        <ele>342.01</ele>
        <time>2022-01-12T14:12:17Z</time>
      </trkpt>
      <trkpt lat="47.90988" lon="5.37686">
        <ele>341.99</ele>
        <time>2022-01-12T14:12:40Z</time>
      </trkpt>
      <trkpt lat="47.90982" lon="5.37706">
        <ele>341.72</ele>
        <time>2022-01-12T14:12:53Z</time>
      </trkpt>
      <trkpt lat="47.90974" lon="5.37729">
        <ele>341.72</ele>
        <time>2022-01-12T14:13:11Z</time>
      </trkpt>
      <trkpt lat="47.90973" lon="5.37731">
        <ele>341.72</ele>
        <time>2022-01-12T14:13:12Z</time>
      </trkpt>
      <trkpt lat="47.90964" lon="5.37761">
        <ele>341.91</ele>
        <time>2022-01-12T14:13:31Z</time>
      </trkpt>
      <trkpt lat="47.90953" lon="5.37785">
        <ele>341.96</ele>
        <time>2022-01-12T14:13:49Z</time>
      </trkpt>
      <trkpt lat="47.90947" lon="5.37815">
        <ele>342.03</ele>
        <time>2022-01-12T14:14:02Z</time>
      </trkpt>
      <trkpt lat="47.90938" lon="5.37842">
        <ele>341.67</ele>
        <time>2022-01-12T14:14:20Z</time>
      </trkpt>
      <trkpt lat="47.90931" lon="5.37863">
        <ele>341.66</ele>
        <time>2022-01-12T14:14:36Z</time>
      </trkpt>
      <trkpt lat="47.90926" lon="5.37879">
        <ele>341.66</ele>
        <time>2022-01-12T14:14:54Z</time>
      </trkpt>
      <trkpt lat="47.90911" lon="5.37925">
        <ele>341.95</ele>
        <time>2022-01-12T14:15:10Z</time>
      </trkpt>
      <trkpt lat="47.90906" lon="5.37955">
        <ele>341.39</ele>
        <time>2022-01-12T14:15:26Z</time>
      </trkpt>
      <trkpt lat="47.90905" lon="5.37976">
        <ele>342.28</ele>
        <time>2022-01-12T14:15:40Z</time>
      </trkpt>
      <trkpt lat="47.90893" lon="5.37988">
        <ele>342.65</ele>
        <time>2022-01-12T14:15:59Z</time>
      </trkpt>
      <trkpt lat="47.90879" lon="5.37986">
        <ele>343.11</ele>
        <time>2022-01-12T14:16:18Z</time>
      </trkpt>
      <trkpt lat="47.90873" lon="5.38001">
        <ele>343.7</ele>
        <time>2022-01-12T14:16:31Z</time>
      </trkpt>
      <trkpt lat="47.90869" lon="5.38017">
        <ele>344.19</ele>
        <time>2022-01-12T14:16:47Z</time>
      </trkpt>
      <trkpt lat="47.90864" lon="5.38033">
        <ele>344.75</ele>
        <time>2022-01-12T14:16:56Z</time>
      </trkpt>
      <trkpt lat="47.90859" lon="5.38049">
        <ele>345.38</ele>
        <time>2022-01-12T14:17:08Z</time>
      </trkpt>
      <trkpt lat="47.90854" lon="5.38075">
        <ele>346.22</ele>
        <time>2022-01-12T14:17:27Z</time>
      </trkpt>
      <trkpt lat="47.90845" lon="5.38105">
        <ele>347.33</ele>
        <time>2022-01-12T14:17:46Z</time>
      </trkpt>
      <trkpt lat="47.90839" lon="5.38125">
        <ele>348.25</ele>
        <time>2022-01-12T14:18:02Z</time>
      </trkpt>
      <trkpt lat="47.90832" lon="5.3816">
        <ele>349.62</ele>
        <time>2022-01-12T14:18:23Z</time>
      </trkpt>
      <trkpt lat="47.90834" lon="5.38167">
        <ele>349.8</ele>
        <time>2022-01-12T14:18:27Z</time>
      </trkpt>
      <trkpt lat="47.90848" lon="5.38173">
        <ele>349.72</ele>
        <time>2022-01-12T14:18:42Z</time>
      </trkpt>
      <trkpt lat="47.90852" lon="5.38173">
        <ele>349.61</ele>
        <time>2022-01-12T14:18:46Z</time>
      </trkpt>
      <trkpt lat="47.90866" lon="5.3817">
        <ele>348.5</ele>
        <time>2022-01-12T14:19:03Z</time>
      </trkpt>
      <trkpt lat="47.90874" lon="5.38171">
        <ele>347.28</ele>
        <time>2022-01-12T14:19:17Z</time>
      </trkpt>
      <trkpt lat="47.90874" lon="5.38171">
        <ele>347.09</ele>
        <time>2022-01-12T14:19:30Z</time>
      </trkpt>
      <trkpt lat="47.90878" lon="5.38172">
        <ele>347.09</ele>
        <time>2022-01-12T14:19:33Z</time>
      </trkpt>
      <trkpt lat="47.90901" lon="5.38177">
        <ele>345.55</ele>
        <time>2022-01-12T14:19:50Z</time>
      </trkpt>
      <trkpt lat="47.90923" lon="5.38182">
        <ele>343.53</ele>
        <time>2022-01-12T14:20:08Z</time>
      </trkpt>
      <trkpt lat="47.90935" lon="5.38184">
        <ele>343.12</ele>
        <time>2022-01-12T14:20:22Z</time>
      </trkpt>
      <trkpt lat="47.90937" lon="5.38185">
        <ele>343.02</ele>
        <time>2022-01-12T14:20:26Z</time>
      </trkpt>
      <trkpt lat="47.90941" lon="5.38186">
        <ele>342.94</ele>
        <time>2022-01-12T14:20:29Z</time>
      </trkpt>
      <trkpt lat="47.90942" lon="5.38186">
        <ele>342.89</ele>
        <time>2022-01-12T14:20:30Z</time>
      </trkpt>
      <trkpt lat="47.90969" lon="5.3819">
        <ele>341.7</ele>
        <time>2022-01-12T14:20:49Z</time>
      </trkpt>
      <trkpt lat="47.90995" lon="5.38196">
        <ele>341.59</ele>
        <time>2022-01-12T14:21:10Z</time>
      </trkpt>
      <trkpt lat="47.91015" lon="5.38199">
        <ele>341.82</ele>
        <time>2022-01-12T14:21:28Z</time>
      </trkpt>
      <trkpt lat="47.91022" lon="5.38202">
        <ele>342.23</ele>
        <time>2022-01-12T14:21:38Z</time>
      </trkpt>
      <trkpt lat="47.91023" lon="5.38202">
        <ele>342.19</ele>
        <time>2022-01-12T14:21:39Z</time>
      </trkpt>
      <trkpt lat="47.91044" lon="5.38205">
        <ele>342.04</ele>
        <time>2022-01-12T14:21:57Z</time>
      </trkpt>
      <trkpt lat="47.91047" lon="5.38205">
        <ele>342.24</ele>
        <time>2022-01-12T14:22:10Z</time>
      </trkpt>
      <trkpt lat="47.91051" lon="5.38206">
        <ele>342.24</ele>
        <time>2022-01-12T14:22:13Z</time>
      </trkpt>
      <trkpt lat="47.91071" lon="5.3821">
        <ele>341.96</ele>
        <time>2022-01-12T14:22:29Z</time>
      </trkpt>
      <trkpt lat="47.91096" lon="5.38215">
        <ele>341.85</ele>
        <time>2022-01-12T14:22:49Z</time>
      </trkpt>
      <trkpt lat="47.9112" lon="5.38218">
        <ele>341.94</ele>
        <time>2022-01-12T14:23:07Z</time>
      </trkpt>
      <trkpt lat="47.91147" lon="5.38224">
        <ele>342.1</ele>
        <time>2022-01-12T14:23:28Z</time>
      </trkpt>
      <trkpt lat="47.9117" lon="5.38228">
        <ele>342.11</ele>
        <time>2022-01-12T14:23:46Z</time>
      </trkpt>
      <trkpt lat="47.91187" lon="5.38234">
        <ele>342.18</ele>
        <time>2022-01-12T14:24:02Z</time>
      </trkpt>
      <trkpt lat="47.912" lon="5.38232">
        <ele>342.63</ele>
        <time>2022-01-12T14:24:16Z</time>
      </trkpt>
      <trkpt lat="47.91205" lon="5.38227">
        <ele>342.68</ele>
        <time>2022-01-12T14:24:22Z</time>
      </trkpt>
      <trkpt lat="47.91221" lon="5.38205">
        <ele>341.55</ele>
        <time>2022-01-12T14:24:41Z</time>
      </trkpt>
      <trkpt lat="47.91227" lon="5.38188">
        <ele>341.02</ele>
        <time>2022-01-12T14:24:56Z</time>
      </trkpt>
      <trkpt lat="47.91238" lon="5.38167">
        <ele>340.89</ele>
        <time>2022-01-12T14:25:12Z</time>
      </trkpt>
      <trkpt lat="47.91255" lon="5.38143">
        <ele>341.04</ele>
        <time>2022-01-12T14:25:32Z</time>
      </trkpt>
      <trkpt lat="47.91272" lon="5.38124">
        <ele>340.99</ele>
        <time>2022-01-12T14:25:50Z</time>
      </trkpt>
      <trkpt lat="47.91288" lon="5.38108">
        <ele>341.1</ele>
        <time>2022-01-12T14:26:07Z</time>
      </trkpt>
      <trkpt lat="47.91299" lon="5.381">
        <ele>341.12</ele>
        <time>2022-01-12T14:26:20Z</time>
      </trkpt>
      <trkpt lat="47.91316" lon="5.38085">
        <ele>341.2</ele>
        <time>2022-01-12T14:26:38Z</time>
      </trkpt>
      <trkpt lat="47.91329" lon="5.38077">
        <ele>341.26</ele>
        <time>2022-01-12T14:26:52Z</time>
      </trkpt>
      <trkpt lat="47.91343" lon="5.38069">
        <ele>341.08</ele>
        <time>2022-01-12T14:27:07Z</time>
      </trkpt>
      <trkpt lat="47.91351" lon="5.38061">
        <ele>341.01</ele>
        <time>2022-01-12T14:27:20Z</time>
      </trkpt>
      <trkpt lat="47.91353" lon="5.38056">
        <ele>341.17</ele>
        <time>2022-01-12T14:27:29Z</time>
      </trkpt>
      <trkpt lat="47.91359" lon="5.38042">
        <ele>341.53</ele>
        <time>2022-01-12T14:27:40Z</time>
      </trkpt>
      <trkpt lat="47.91366" lon="5.3802">
        <ele>341.31</ele>
        <time>2022-01-12T14:27:54Z</time>
      </trkpt>
      <trkpt lat="47.91368" lon="5.38018">
        <ele>341.28</ele>
        <time>2022-01-12T14:27:56Z</time>
      </trkpt>
      <trkpt lat="47.91377" lon="5.37999">
        <ele>341.14</ele>
        <time>2022-01-12T14:28:10Z</time>
      </trkpt>
      <trkpt lat="47.91375" lon="5.37976">
        <ele>341.12</ele>
        <time>2022-01-12T14:28:26Z</time>
      </trkpt>
      <trkpt lat="47.91373" lon="5.37966">
        <ele>341.14</ele>
        <time>2022-01-12T14:28:33Z</time>
      </trkpt>
      <trkpt lat="47.91372" lon="5.37962">
        <ele>341.18</ele>
        <time>2022-01-12T14:28:35Z</time>
      </trkpt>
      <trkpt lat="47.91368" lon="5.37947">
        <ele>341.49</ele>
        <time>2022-01-12T14:28:47Z</time>
      </trkpt>
      <trkpt lat="47.91369" lon="5.37948">
        <ele>341.61</ele>
        <time>2022-01-12T14:28:52Z</time>
      </trkpt>
      <trkpt lat="47.9137" lon="5.37951">
        <ele>341.53</ele>
        <time>2022-01-12T14:28:55Z</time>
      </trkpt>
      <trkpt lat="47.91376" lon="5.37961">
        <ele>341.5</ele>
        <time>2022-01-12T14:29:05Z</time>
      </trkpt>
      <trkpt lat="47.9138" lon="5.37962">
        <ele>341.39</ele>
        <time>2022-01-12T14:29:15Z</time>
      </trkpt>
      <trkpt lat="47.91385" lon="5.37965">
        <ele>341.53</ele>
        <time>2022-01-12T14:29:34Z</time>
      </trkpt>
      <trkpt lat="47.91384" lon="5.37968">
        <ele>341.47</ele>
        <time>2022-01-12T14:29:53Z</time>
      </trkpt>
      <trkpt lat="47.91383" lon="5.37967">
        <ele>341.44</ele>
        <time>2022-01-12T14:30:15Z</time>
      </trkpt>
      <trkpt lat="47.91385" lon="5.37976">
        <ele>341.44</ele>
        <time>2022-01-12T14:30:29Z</time>
      </trkpt>
      <trkpt lat="47.91346" lon="5.37837">
        <ele>343.8</ele>
      </trkpt>
      <trkpt lat="47.91336" lon="5.37682">
        <ele>345.1</ele>
      </trkpt>
    </trkseg>
  </trk>
</gpx>